sensor_id;sensor_type;location;lat;lon;timestamp;temperature;humidity
23156;DHT22;11746;50.876;4.246;2023-07-22T00:01:02;17.30;99.90
23156;DHT22;11746;50.876;4.246;2023-07-22T00:03:28;17.20;99.90
23156;DHT22;11746;50.876;4.246;2023-07-22T00:06:07;17.10;99.90
23156;DHT22;11746;50.876;4.246;2023-07-22T00:08:37;17.30;99.90
23156;DHT22;11746;50.876;4.246;2023-07-22T00:11:05;17.10;99.90
23156;DHT22;11746;50.876;4.246;2023-07-22T00:13:31;17.10;99.90
23156;DHT22;11746;50.876;4.246;2023-07-22T00:15:58;17.20;99.90
23156;DHT22;11746;50.876;4.246;2023-07-22T00:18:27;17.20;99.90
23156;DHT22;11746;50.876;4.246;2023-07-22T00:20:54;17.20;99.90
23156;DHT22;11746;50.876;4.246;2023-07-22T00:23:20;17.20;99.90
23156;DHT22;11746;50.876;4.246;2023-07-22T00:25:51;17.20;99.90
23156;DHT22;11746;50.876;4.246;2023-07-22T00:28:17;17.00;99.90
23156;DHT22;11746;50.876;4.246;2023-07-22T00:30:44;16.90;99.90
23156;DHT22;11746;50.876;4.246;2023-07-22T00:33:10;16.80;99.90
23156;DHT22;11746;50.876;4.246;2023-07-22T00:35:35;16.70;99.90
23156;DHT22;11746;50.876;4.246;2023-07-22T00:38:02;16.60;99.90
23156;DHT22;11746;50.876;4.246;2023-07-22T00:40:29;16.70;99.90
23156;DHT22;11746;50.876;4.246;2023-07-22T00:42:57;16.80;99.90
23156;DHT22;11746;50.876;4.246;2023-07-22T00:45:24;16.80;99.90
23156;DHT22;11746;50.876;4.246;2023-07-22T00:47:50;16.80;99.90
23156;DHT22;11746;50.876;4.246;2023-07-22T00:50:16;16.70;99.90
23156;DHT22;11746;50.876;4.246;2023-07-22T00:52:42;16.60;99.90
23156;DHT22;11746;50.876;4.246;2023-07-22T00:55:09;16.60;99.90
23156;DHT22;11746;50.876;4.246;2023-07-22T00:57:35;16.60;99.90
23156;DHT22;11746;50.876;4.246;2023-07-22T01:00:01;16.60;99.90
23156;DHT22;11746;50.876;4.246;2023-07-22T01:02:27;16.70;99.90
23156;DHT22;11746;50.876;4.246;2023-07-22T01:04:54;16.70;99.90
23156;DHT22;11746;50.876;4.246;2023-07-22T01:07:20;16.70;99.90
23156;DHT22;11746;50.876;4.246;2023-07-22T01:09:46;16.70;99.90
23156;DHT22;11746;50.876;4.246;2023-07-22T01:12:12;16.50;99.90
23156;DHT22;11746;50.876;4.246;2023-07-22T01:14:41;16.40;99.90
23156;DHT22;11746;50.876;4.246;2023-07-22T01:17:08;16.30;99.90
23156;DHT22;11746;50.876;4.246;2023-07-22T01:19:35;16.20;99.90
23156;DHT22;11746;50.876;4.246;2023-07-22T01:22:03;16.30;99.90
23156;DHT22;11746;50.876;4.246;2023-07-22T01:24:37;16.30;99.90
23156;DHT22;11746;50.876;4.246;2023-07-22T01:27:04;16.30;99.90
23156;DHT22;11746;50.876;4.246;2023-07-22T01:29:34;16.30;99.90
23156;DHT22;11746;50.876;4.246;2023-07-22T01:32:00;16.20;99.90
23156;DHT22;11746;50.876;4.246;2023-07-22T01:34:26;16.10;99.90
23156;DHT22;11746;50.876;4.246;2023-07-22T01:36:52;16.10;99.90
23156;DHT22;11746;50.876;4.246;2023-07-22T01:39:19;16.00;99.90
23156;DHT22;11746;50.876;4.246;2023-07-22T01:41:46;16.00;99.90
23156;DHT22;11746;50.876;4.246;2023-07-22T01:44:12;16.10;99.90
23156;DHT22;11746;50.876;4.246;2023-07-22T01:46:38;16.10;99.90
23156;DHT22;11746;50.876;4.246;2023-07-22T01:49:06;15.90;99.90
23156;DHT22;11746;50.876;4.246;2023-07-22T01:51:34;15.80;99.90
23156;DHT22;11746;50.876;4.246;2023-07-22T01:54:00;15.70;99.90
23156;DHT22;11746;50.876;4.246;2023-07-22T01:56:26;15.80;99.90
23156;DHT22;11746;50.876;4.246;2023-07-22T01:58:52;15.60;99.90
23156;DHT22;11746;50.876;4.246;2023-07-22T02:01:18;15.70;99.90
23156;DHT22;11746;50.876;4.246;2023-07-22T02:03:44;15.70;99.90
23156;DHT22;11746;50.876;4.246;2023-07-22T02:06:10;15.70;99.90
23156;DHT22;11746;50.876;4.246;2023-07-22T02:08:36;15.70;99.90
23156;DHT22;11746;50.876;4.246;2023-07-22T02:11:03;15.60;99.90
23156;DHT22;11746;50.876;4.246;2023-07-22T02:13:30;15.50;99.90
23156;DHT22;11746;50.876;4.246;2023-07-22T02:15:56;15.30;99.90
23156;DHT22;11746;50.876;4.246;2023-07-22T02:18:22;15.30;99.90
23156;DHT22;11746;50.876;4.246;2023-07-22T02:20:48;15.20;99.90
23156;DHT22;11746;50.876;4.246;2023-07-22T02:23:14;15.30;99.90
23156;DHT22;11746;50.876;4.246;2023-07-22T02:25:40;15.40;99.90
23156;DHT22;11746;50.876;4.246;2023-07-22T02:28:06;15.40;99.90
23156;DHT22;11746;50.876;4.246;2023-07-22T02:30:35;15.40;99.90
23156;DHT22;11746;50.876;4.246;2023-07-22T02:33:02;15.40;99.90
23156;DHT22;11746;50.876;4.246;2023-07-22T02:35:28;15.40;99.90
23156;DHT22;11746;50.876;4.246;2023-07-22T02:37:54;15.30;99.90
23156;DHT22;11746;50.876;4.246;2023-07-22T02:40:20;15.30;99.90
23156;DHT22;11746;50.876;4.246;2023-07-22T02:42:46;15.30;99.90
23156;DHT22;11746;50.876;4.246;2023-07-22T02:45:12;15.10;99.90
23156;DHT22;11746;50.876;4.246;2023-07-22T02:47:38;15.20;99.90
23156;DHT22;11746;50.876;4.246;2023-07-22T02:50:06;15.20;99.90
23156;DHT22;11746;50.876;4.246;2023-07-22T02:52:32;15.30;99.90
23156;DHT22;11746;50.876;4.246;2023-07-22T02:55:15;15.30;99.90
23156;DHT22;11746;50.876;4.246;2023-07-22T02:57:44;15.40;99.90
23156;DHT22;11746;50.876;4.246;2023-07-22T03:00:12;15.30;99.90
23156;DHT22;11746;50.876;4.246;2023-07-22T03:02:41;15.20;99.90
23156;DHT22;11746;50.876;4.246;2023-07-22T03:05:07;15.20;99.90
23156;DHT22;11746;50.876;4.246;2023-07-22T03:07:38;15.30;99.90
23156;DHT22;11746;50.876;4.246;2023-07-22T03:10:07;15.30;99.90
23156;DHT22;11746;50.876;4.246;2023-07-22T03:12:34;15.30;99.90
23156;DHT22;11746;50.876;4.246;2023-07-22T03:15:00;15.20;99.90
23156;DHT22;11746;50.876;4.246;2023-07-22T03:17:26;15.10;99.90
23156;DHT22;11746;50.876;4.246;2023-07-22T03:19:52;15.10;99.90
23156;DHT22;11746;50.876;4.246;2023-07-22T03:22:18;15.10;99.90
23156;DHT22;11746;50.876;4.246;2023-07-22T03:24:47;15.20;99.90
23156;DHT22;11746;50.876;4.246;2023-07-22T03:27:14;15.10;99.90
23156;DHT22;11746;50.876;4.246;2023-07-22T03:29:41;15.20;99.90
23156;DHT22;11746;50.876;4.246;2023-07-22T03:32:07;15.20;99.90
23156;DHT22;11746;50.876;4.246;2023-07-22T03:34:34;15.20;99.90
23156;DHT22;11746;50.876;4.246;2023-07-22T03:37:00;15.10;99.90
23156;DHT22;11746;50.876;4.246;2023-07-22T03:39:26;14.90;99.90
23156;DHT22;11746;50.876;4.246;2023-07-22T03:41:52;14.90;99.90
23156;DHT22;11746;50.876;4.246;2023-07-22T03:44:17;14.90;99.90
23156;DHT22;11746;50.876;4.246;2023-07-22T03:46:43;15.00;99.90
23156;DHT22;11746;50.876;4.246;2023-07-22T03:49:09;14.90;99.90
23156;DHT22;11746;50.876;4.246;2023-07-22T03:51:35;14.90;99.90
23156;DHT22;11746;50.876;4.246;2023-07-22T03:54:01;14.80;99.90
23156;DHT22;11746;50.876;4.246;2023-07-22T03:56:27;14.70;99.90
23156;DHT22;11746;50.876;4.246;2023-07-22T03:58:53;14.60;99.90
23156;DHT22;11746;50.876;4.246;2023-07-22T04:01:19;14.60;99.90
23156;DHT22;11746;50.876;4.246;2023-07-22T04:03:45;14.50;99.90
23156;DHT22;11746;50.876;4.246;2023-07-22T04:06:11;14.40;99.90
23156;DHT22;11746;50.876;4.246;2023-07-22T04:08:37;14.50;99.90
23156;DHT22;11746;50.876;4.246;2023-07-22T04:11:03;14.50;99.90
23156;DHT22;11746;50.876;4.246;2023-07-22T04:13:29;14.50;99.90
23156;DHT22;11746;50.876;4.246;2023-07-22T04:15:55;14.50;99.90
23156;DHT22;11746;50.876;4.246;2023-07-22T04:18:21;14.40;99.90
23156;DHT22;11746;50.876;4.246;2023-07-22T04:20:47;14.40;99.90
23156;DHT22;11746;50.876;4.246;2023-07-22T04:23:16;14.50;99.90
23156;DHT22;11746;50.876;4.246;2023-07-22T04:25:43;14.50;99.90
23156;DHT22;11746;50.876;4.246;2023-07-22T04:28:10;14.70;99.90
23156;DHT22;11746;50.876;4.246;2023-07-22T04:30:37;14.60;99.90
23156;DHT22;11746;50.876;4.246;2023-07-22T04:33:04;14.80;99.90
23156;DHT22;11746;50.876;4.246;2023-07-22T04:35:35;14.60;99.90
23156;DHT22;11746;50.876;4.246;2023-07-22T04:38:01;14.60;99.90
23156;DHT22;11746;50.876;4.246;2023-07-22T04:40:27;14.70;99.90
23156;DHT22;11746;50.876;4.246;2023-07-22T04:42:53;14.80;99.90
23156;DHT22;11746;50.876;4.246;2023-07-22T04:45:19;14.60;99.90
23156;DHT22;11746;50.876;4.246;2023-07-22T04:47:45;14.60;99.90
23156;DHT22;11746;50.876;4.246;2023-07-22T04:50:13;14.80;99.90
23156;DHT22;11746;50.876;4.246;2023-07-22T04:52:41;14.80;99.90
23156;DHT22;11746;50.876;4.246;2023-07-22T04:55:07;14.80;99.90
23156;DHT22;11746;50.876;4.246;2023-07-22T04:57:37;14.90;99.90
23156;DHT22;11746;50.876;4.246;2023-07-22T05:00:03;14.80;99.90
23156;DHT22;11746;50.876;4.246;2023-07-22T05:02:30;14.80;99.90
23156;DHT22;11746;50.876;4.246;2023-07-22T05:04:56;14.70;99.90
23156;DHT22;11746;50.876;4.246;2023-07-22T05:07:22;14.50;99.90
23156;DHT22;11746;50.876;4.246;2023-07-22T05:09:49;14.40;99.90
23156;DHT22;11746;50.876;4.246;2023-07-22T05:12:15;14.50;99.90
23156;DHT22;11746;50.876;4.246;2023-07-22T05:14:41;14.50;99.90
23156;DHT22;11746;50.876;4.246;2023-07-22T05:17:07;14.50;99.90
23156;DHT22;11746;50.876;4.246;2023-07-22T05:19:33;14.60;99.90
23156;DHT22;11746;50.876;4.246;2023-07-22T05:21:58;14.50;99.90
23156;DHT22;11746;50.876;4.246;2023-07-22T05:24:24;14.40;99.90
23156;DHT22;11746;50.876;4.246;2023-07-22T05:26:50;14.40;99.90
23156;DHT22;11746;50.876;4.246;2023-07-22T05:29:16;14.50;99.90
23156;DHT22;11746;50.876;4.246;2023-07-22T05:31:42;14.60;99.90
23156;DHT22;11746;50.876;4.246;2023-07-22T05:34:08;14.70;99.90
23156;DHT22;11746;50.876;4.246;2023-07-22T05:36:34;14.70;99.90
23156;DHT22;11746;50.876;4.246;2023-07-22T05:39:00;14.80;99.90
23156;DHT22;11746;50.876;4.246;2023-07-22T05:41:26;15.00;99.90
23156;DHT22;11746;50.876;4.246;2023-07-22T05:43:52;15.00;99.90
23156;DHT22;11746;50.876;4.246;2023-07-22T05:46:18;15.00;99.90
23156;DHT22;11746;50.876;4.246;2023-07-22T05:48:44;15.00;99.90
23156;DHT22;11746;50.876;4.246;2023-07-22T05:51:10;15.10;99.90
23156;DHT22;11746;50.876;4.246;2023-07-22T05:53:35;15.20;99.90
23156;DHT22;11746;50.876;4.246;2023-07-22T05:56:01;15.20;99.90
23156;DHT22;11746;50.876;4.246;2023-07-22T05:58:27;15.30;99.90
23156;DHT22;11746;50.876;4.246;2023-07-22T06:00:54;15.20;99.90
23156;DHT22;11746;50.876;4.246;2023-07-22T06:03:21;15.20;99.90
23156;DHT22;11746;50.876;4.246;2023-07-22T06:05:47;15.30;99.90
23156;DHT22;11746;50.876;4.246;2023-07-22T06:08:13;15.50;99.90
23156;DHT22;11746;50.876;4.246;2023-07-22T06:10:40;15.40;99.90
23156;DHT22;11746;50.876;4.246;2023-07-22T06:13:06;15.50;99.90
23156;DHT22;11746;50.876;4.246;2023-07-22T06:15:33;15.60;99.90
23156;DHT22;11746;50.876;4.246;2023-07-22T06:17:59;15.90;99.90
23156;DHT22;11746;50.876;4.246;2023-07-22T06:20:26;15.70;99.90
23156;DHT22;11746;50.876;4.246;2023-07-22T06:22:52;15.60;99.90
23156;DHT22;11746;50.876;4.246;2023-07-22T06:25:18;15.40;99.90
23156;DHT22;11746;50.876;4.246;2023-07-22T06:27:44;15.60;99.90
23156;DHT22;11746;50.876;4.246;2023-07-22T06:30:10;15.70;99.90
23156;DHT22;11746;50.876;4.246;2023-07-22T06:32:37;15.60;99.90
23156;DHT22;11746;50.876;4.246;2023-07-22T06:35:05;15.50;99.90
23156;DHT22;11746;50.876;4.246;2023-07-22T06:37:31;15.50;99.90
23156;DHT22;11746;50.876;4.246;2023-07-22T06:39:57;15.50;99.90
23156;DHT22;11746;50.876;4.246;2023-07-22T06:42:23;15.50;99.90
23156;DHT22;11746;50.876;4.246;2023-07-22T06:44:52;15.50;99.90
23156;DHT22;11746;50.876;4.246;2023-07-22T06:47:18;15.70;99.90
23156;DHT22;11746;50.876;4.246;2023-07-22T06:49:44;15.80;99.90
23156;DHT22;11746;50.876;4.246;2023-07-22T06:52:09;16.00;99.90
23156;DHT22;11746;50.876;4.246;2023-07-22T06:54:36;16.00;99.90
23156;DHT22;11746;50.876;4.246;2023-07-22T06:57:02;16.10;99.90
23156;DHT22;11746;50.876;4.246;2023-07-22T06:59:27;16.20;99.90
23156;DHT22;11746;50.876;4.246;2023-07-22T07:01:54;16.10;99.90
23156;DHT22;11746;50.876;4.246;2023-07-22T07:04:20;16.20;99.90
23156;DHT22;11746;50.876;4.246;2023-07-22T07:06:46;16.30;99.90
23156;DHT22;11746;50.876;4.246;2023-07-22T07:09:12;16.30;99.90
23156;DHT22;11746;50.876;4.246;2023-07-22T07:11:38;16.40;99.90
23156;DHT22;11746;50.876;4.246;2023-07-22T07:14:04;16.50;99.90
23156;DHT22;11746;50.876;4.246;2023-07-22T07:16:31;16.50;99.90
23156;DHT22;11746;50.876;4.246;2023-07-22T07:18:58;16.50;99.90
23156;DHT22;11746;50.876;4.246;2023-07-22T07:21:24;16.70;99.90
23156;DHT22;11746;50.876;4.246;2023-07-22T07:23:51;16.90;99.90
23156;DHT22;11746;50.876;4.246;2023-07-22T07:26:17;17.10;99.90
23156;DHT22;11746;50.876;4.246;2023-07-22T07:28:44;17.00;99.90
23156;DHT22;11746;50.876;4.246;2023-07-22T07:31:10;16.90;99.90
23156;DHT22;11746;50.876;4.246;2023-07-22T07:33:36;16.70;99.90
23156;DHT22;11746;50.876;4.246;2023-07-22T07:36:02;16.60;99.90
23156;DHT22;11746;50.876;4.246;2023-07-22T07:38:29;16.50;99.90
23156;DHT22;11746;50.876;4.246;2023-07-22T07:40:59;16.30;99.90
23156;DHT22;11746;50.876;4.246;2023-07-22T07:43:26;16.40;99.90
23156;DHT22;11746;50.876;4.246;2023-07-22T07:46:19;16.50;99.90
23156;DHT22;11746;50.876;4.246;2023-07-22T07:48:50;16.40;99.90
23156;DHT22;11746;50.876;4.246;2023-07-22T07:51:18;16.50;99.90
23156;DHT22;11746;50.876;4.246;2023-07-22T07:53:45;16.60;99.90
23156;DHT22;11746;50.876;4.246;2023-07-22T07:56:13;16.60;99.90
23156;DHT22;11746;50.876;4.246;2023-07-22T07:58:39;16.80;99.90
23156;DHT22;11746;50.876;4.246;2023-07-22T08:01:06;16.80;99.90
23156;DHT22;11746;50.876;4.246;2023-07-22T08:03:33;17.00;99.90
23156;DHT22;11746;50.876;4.246;2023-07-22T08:05:59;17.30;99.90
23156;DHT22;11746;50.876;4.246;2023-07-22T08:08:25;17.50;99.90
23156;DHT22;11746;50.876;4.246;2023-07-22T08:11:17;17.40;99.90
23156;DHT22;11746;50.876;4.246;2023-07-22T08:13:44;17.50;99.90
23156;DHT22;11746;50.876;4.246;2023-07-22T08:16:12;17.70;99.90
23156;DHT22;11746;50.876;4.246;2023-07-22T08:18:38;17.70;99.90
23156;DHT22;11746;50.876;4.246;2023-07-22T08:21:05;17.90;99.90
23156;DHT22;11746;50.876;4.246;2023-07-22T08:23:35;17.80;99.90
23156;DHT22;11746;50.876;4.246;2023-07-22T08:26:02;17.90;99.90
23156;DHT22;11746;50.876;4.246;2023-07-22T08:28:31;17.70;99.90
23156;DHT22;11746;50.876;4.246;2023-07-22T08:30:57;17.70;99.90
23156;DHT22;11746;50.876;4.246;2023-07-22T08:33:24;17.70;99.90
23156;DHT22;11746;50.876;4.246;2023-07-22T08:35:53;17.70;99.90
23156;DHT22;11746;50.876;4.246;2023-07-22T08:38:19;17.80;99.90
23156;DHT22;11746;50.876;4.246;2023-07-22T08:40:49;17.80;99.90
23156;DHT22;11746;50.876;4.246;2023-07-22T08:43:21;17.80;99.90
23156;DHT22;11746;50.876;4.246;2023-07-22T08:45:49;17.70;99.90
23156;DHT22;11746;50.876;4.246;2023-07-22T08:48:17;17.80;99.90
23156;DHT22;11746;50.876;4.246;2023-07-22T08:53:38;18.20;99.90
23156;DHT22;11746;50.876;4.246;2023-07-22T08:56:04;18.40;99.90
23156;DHT22;11746;50.876;4.246;2023-07-22T08:58:30;18.30;99.90
23156;DHT22;11746;50.876;4.246;2023-07-22T09:00:56;18.60;99.90
23156;DHT22;11746;50.876;4.246;2023-07-22T09:03:24;18.90;99.90
23156;DHT22;11746;50.876;4.246;2023-07-22T09:05:50;19.00;99.90
23156;DHT22;11746;50.876;4.246;2023-07-22T09:08:16;18.90;99.90
23156;DHT22;11746;50.876;4.246;2023-07-22T09:10:43;19.00;99.90
23156;DHT22;11746;50.876;4.246;2023-07-22T09:13:10;18.90;99.90
23156;DHT22;11746;50.876;4.246;2023-07-22T09:15:36;19.10;99.90
23156;DHT22;11746;50.876;4.246;2023-07-22T09:18:04;19.40;99.90
23156;DHT22;11746;50.876;4.246;2023-07-22T09:20:30;19.40;99.90
23156;DHT22;11746;50.876;4.246;2023-07-22T09:22:56;19.30;99.90
23156;DHT22;11746;50.876;4.246;2023-07-22T09:25:24;19.30;99.90
23156;DHT22;11746;50.876;4.246;2023-07-22T09:27:52;19.30;99.90
23156;DHT22;11746;50.876;4.246;2023-07-22T09:30:38;19.10;99.90
23156;DHT22;11746;50.876;4.246;2023-07-22T09:33:07;19.00;99.90
23156;DHT22;11746;50.876;4.246;2023-07-22T09:35:49;19.20;99.90
23156;DHT22;11746;50.876;4.246;2023-07-22T09:38:23;19.60;99.90
23156;DHT22;11746;50.876;4.246;2023-07-22T09:40:49;19.70;99.90
23156;DHT22;11746;50.876;4.246;2023-07-22T09:43:17;19.80;99.90
23156;DHT22;11746;50.876;4.246;2023-07-22T09:45:47;19.90;99.90
23156;DHT22;11746;50.876;4.246;2023-07-22T09:48:13;19.80;99.90
23156;DHT22;11746;50.876;4.246;2023-07-22T09:50:39;19.60;99.90
23156;DHT22;11746;50.876;4.246;2023-07-22T09:53:05;19.60;99.90
23156;DHT22;11746;50.876;4.246;2023-07-22T09:55:32;19.70;99.90
23156;DHT22;11746;50.876;4.246;2023-07-22T09:58:03;19.70;99.90
23156;DHT22;11746;50.876;4.246;2023-07-22T10:00:34;19.70;99.90
23156;DHT22;11746;50.876;4.246;2023-07-22T10:03:01;19.80;99.90
23156;DHT22;11746;50.876;4.246;2023-07-22T10:05:30;19.90;99.90
23156;DHT22;11746;50.876;4.246;2023-07-22T10:07:59;19.90;99.90
23156;DHT22;11746;50.876;4.246;2023-07-22T10:10:45;20.10;99.90
23156;DHT22;11746;50.876;4.246;2023-07-22T10:13:11;20.50;99.90
23156;DHT22;11746;50.876;4.246;2023-07-22T10:15:37;20.50;99.90
23156;DHT22;11746;50.876;4.246;2023-07-22T10:18:04;20.60;99.90
23156;DHT22;11746;50.876;4.246;2023-07-22T10:20:34;20.70;99.90
23156;DHT22;11746;50.876;4.246;2023-07-22T10:23:02;20.60;99.90
23156;DHT22;11746;50.876;4.246;2023-07-22T10:25:30;20.80;99.90
23156;DHT22;11746;50.876;4.246;2023-07-22T10:27:56;21.20;99.90
23156;DHT22;11746;50.876;4.246;2023-07-22T10:30:22;21.40;99.90
23156;DHT22;11746;50.876;4.246;2023-07-22T10:32:52;21.30;99.90
23156;DHT22;11746;50.876;4.246;2023-07-22T10:38:16;21.00;99.90
23156;DHT22;11746;50.876;4.246;2023-07-22T10:40:52;21.20;99.90
23156;DHT22;11746;50.876;4.246;2023-07-22T10:43:33;21.20;99.90
23156;DHT22;11746;50.876;4.246;2023-07-22T10:46:09;21.20;99.90
23156;DHT22;11746;50.876;4.246;2023-07-22T10:48:37;20.90;99.90
23156;DHT22;11746;50.876;4.246;2023-07-22T10:51:21;20.60;99.90
23156;DHT22;11746;50.876;4.246;2023-07-22T10:53:48;20.50;99.90
23156;DHT22;11746;50.876;4.246;2023-07-22T10:56:20;20.50;99.90
23156;DHT22;11746;50.876;4.246;2023-07-22T11:12:16;20.40;99.90
23156;DHT22;11746;50.876;4.246;2023-07-22T11:17:12;21.00;99.90
23156;DHT22;11746;50.876;4.246;2023-07-22T11:19:39;21.30;99.90
23156;DHT22;11746;50.876;4.246;2023-07-22T11:22:05;21.20;99.90
23156;DHT22;11746;50.876;4.246;2023-07-22T11:24:34;21.30;99.90
23156;DHT22;11746;50.876;4.246;2023-07-22T11:27:04;21.50;99.90
23156;DHT22;11746;50.876;4.246;2023-07-22T11:29:31;21.70;99.90
23156;DHT22;11746;50.876;4.246;2023-07-22T11:31:57;21.70;99.90
23156;DHT22;11746;50.876;4.246;2023-07-22T11:34:24;21.90;99.90
23156;DHT22;11746;50.876;4.246;2023-07-22T11:36:52;21.90;99.90
23156;DHT22;11746;50.876;4.246;2023-07-22T11:39:20;21.60;99.90
23156;DHT22;11746;50.876;4.246;2023-07-22T11:41:47;21.40;99.90
23156;DHT22;11746;50.876;4.246;2023-07-22T11:44:15;21.60;99.90
23156;DHT22;11746;50.876;4.246;2023-07-22T11:47:02;21.90;99.90
23156;DHT22;11746;50.876;4.246;2023-07-22T11:49:32;21.70;99.90
23156;DHT22;11746;50.876;4.246;2023-07-22T11:52:02;21.70;99.90
23156;DHT22;11746;50.876;4.246;2023-07-22T11:54:30;21.80;99.90
23156;DHT22;11746;50.876;4.246;2023-07-22T11:56:56;21.80;99.90
23156;DHT22;11746;50.876;4.246;2023-07-22T11:59:59;21.50;99.90
23156;DHT22;11746;50.876;4.246;2023-07-22T12:02:28;21.50;99.90
23156;DHT22;11746;50.876;4.246;2023-07-22T12:05:00;21.70;99.90
23156;DHT22;11746;50.876;4.246;2023-07-22T12:07:35;22.00;99.90
23156;DHT22;11746;50.876;4.246;2023-07-22T12:10:02;22.10;99.90
23156;DHT22;11746;50.876;4.246;2023-07-22T12:15:22;22.30;98.70
23156;DHT22;11746;50.876;4.246;2023-07-22T12:17:56;22.20;96.90
23156;DHT22;11746;50.876;4.246;2023-07-22T12:20:30;22.30;98.30
23156;DHT22;11746;50.876;4.246;2023-07-22T12:22:57;22.60;99.50
23156;DHT22;11746;50.876;4.246;2023-07-22T12:25:23;22.70;98.10
23156;DHT22;11746;50.876;4.246;2023-07-22T12:27:50;22.70;96.90
23156;DHT22;11746;50.876;4.246;2023-07-22T12:30:16;22.70;97.50
23156;DHT22;11746;50.876;4.246;2023-07-22T12:32:42;23.00;96.70
23156;DHT22;11746;50.876;4.246;2023-07-22T12:35:08;23.30;96.60
23156;DHT22;11746;50.876;4.246;2023-07-22T12:37:35;23.40;96.20
23156;DHT22;11746;50.876;4.246;2023-07-22T12:40:01;23.30;95.30
23156;DHT22;11746;50.876;4.246;2023-07-22T12:42:27;23.40;95.30
23156;DHT22;11746;50.876;4.246;2023-07-22T12:44:53;23.50;95.50
23156;DHT22;11746;50.876;4.246;2023-07-22T12:47:18;23.10;95.60
23156;DHT22;11746;50.876;4.246;2023-07-22T12:49:44;22.80;96.20
23156;DHT22;11746;50.876;4.246;2023-07-22T12:52:11;22.40;96.90
23156;DHT22;11746;50.876;4.246;2023-07-22T12:54:38;22.30;97.30
23156;DHT22;11746;50.876;4.246;2023-07-22T12:57:04;22.10;97.00
23156;DHT22;11746;50.876;4.246;2023-07-22T12:59:30;22.00;98.00
23156;DHT22;11746;50.876;4.246;2023-07-22T13:01:57;22.20;97.50
23156;DHT22;11746;50.876;4.246;2023-07-22T13:04:24;22.00;97.70
23156;DHT22;11746;50.876;4.246;2023-07-22T13:06:50;21.60;98.80
23156;DHT22;11746;50.876;4.246;2023-07-22T13:09:18;21.60;99.20
23156;DHT22;11746;50.876;4.246;2023-07-22T13:11:44;21.40;99.90
23156;DHT22;11746;50.876;4.246;2023-07-22T13:14:10;21.40;99.70
23156;DHT22;11746;50.876;4.246;2023-07-22T13:16:36;21.70;99.90
23156;DHT22;11746;50.876;4.246;2023-07-22T13:19:02;21.80;99.90
23156;DHT22;11746;50.876;4.246;2023-07-22T13:21:29;21.90;99.90
23156;DHT22;11746;50.876;4.246;2023-07-22T13:23:55;22.00;99.90
23156;DHT22;11746;50.876;4.246;2023-07-22T13:26:21;21.90;99.60
23156;DHT22;11746;50.876;4.246;2023-07-22T13:28:47;21.80;99.90
23156;DHT22;11746;50.876;4.246;2023-07-22T13:31:13;21.80;99.90
23156;DHT22;11746;50.876;4.246;2023-07-22T13:33:39;21.50;99.90
23156;DHT22;11746;50.876;4.246;2023-07-22T13:36:06;21.30;99.90
23156;DHT22;11746;50.876;4.246;2023-07-22T13:38:32;21.10;99.90
23156;DHT22;11746;50.876;4.246;2023-07-22T13:40:58;20.80;99.90
23156;DHT22;11746;50.876;4.246;2023-07-22T13:43:26;20.80;99.90
23156;DHT22;11746;50.876;4.246;2023-07-22T13:45:54;21.10;99.90
23156;DHT22;11746;50.876;4.246;2023-07-22T13:48:20;21.10;99.90
23156;DHT22;11746;50.876;4.246;2023-07-22T13:50:46;21.10;99.90
23156;DHT22;11746;50.876;4.246;2023-07-22T13:53:12;20.90;99.90
23156;DHT22;11746;50.876;4.246;2023-07-22T13:55:38;20.70;99.90
23156;DHT22;11746;50.876;4.246;2023-07-22T13:58:04;20.60;99.90
23156;DHT22;11746;50.876;4.246;2023-07-22T14:00:29;20.50;99.90
23156;DHT22;11746;50.876;4.246;2023-07-22T14:02:55;20.50;99.90
23156;DHT22;11746;50.876;4.246;2023-07-22T14:05:23;20.40;99.90
23156;DHT22;11746;50.876;4.246;2023-07-22T14:07:48;20.40;99.90
23156;DHT22;11746;50.876;4.246;2023-07-22T14:10:14;20.30;99.90
23156;DHT22;11746;50.876;4.246;2023-07-22T14:12:40;20.30;99.90
23156;DHT22;11746;50.876;4.246;2023-07-22T14:15:07;20.40;99.90
23156;DHT22;11746;50.876;4.246;2023-07-22T14:17:33;20.40;99.90
23156;DHT22;11746;50.876;4.246;2023-07-22T14:19:59;20.30;99.90
23156;DHT22;11746;50.876;4.246;2023-07-22T14:22:25;20.20;99.90
23156;DHT22;11746;50.876;4.246;2023-07-22T14:24:51;20.20;99.90
23156;DHT22;11746;50.876;4.246;2023-07-22T14:27:18;20.30;99.90
23156;DHT22;11746;50.876;4.246;2023-07-22T14:29:44;20.40;99.90
23156;DHT22;11746;50.876;4.246;2023-07-22T14:32:09;20.40;99.90
23156;DHT22;11746;50.876;4.246;2023-07-22T14:34:35;20.30;99.90
23156;DHT22;11746;50.876;4.246;2023-07-22T14:37:01;20.30;99.90
23156;DHT22;11746;50.876;4.246;2023-07-22T14:39:29;20.50;99.90
23156;DHT22;11746;50.876;4.246;2023-07-22T14:41:55;20.50;99.90
23156;DHT22;11746;50.876;4.246;2023-07-22T14:44:21;20.70;99.90
23156;DHT22;11746;50.876;4.246;2023-07-22T14:46:47;20.60;99.90
23156;DHT22;11746;50.876;4.246;2023-07-22T14:49:13;20.80;99.90
23156;DHT22;11746;50.876;4.246;2023-07-22T14:51:39;21.20;99.90
23156;DHT22;11746;50.876;4.246;2023-07-22T14:54:05;21.30;99.90
23156;DHT22;11746;50.876;4.246;2023-07-22T14:56:31;21.40;99.90
23156;DHT22;11746;50.876;4.246;2023-07-22T14:58:57;21.40;99.90
23156;DHT22;11746;50.876;4.246;2023-07-22T15:01:22;21.40;99.90
23156;DHT22;11746;50.876;4.246;2023-07-22T15:03:48;21.20;99.90
23156;DHT22;11746;50.876;4.246;2023-07-22T15:06:14;21.40;99.90
23156;DHT22;11746;50.876;4.246;2023-07-22T15:08:40;21.70;99.90
23156;DHT22;11746;50.876;4.246;2023-07-22T15:11:07;21.90;99.90
23156;DHT22;11746;50.876;4.246;2023-07-22T15:13:33;21.80;99.90
23156;DHT22;11746;50.876;4.246;2023-07-22T15:15:59;21.90;99.90
23156;DHT22;11746;50.876;4.246;2023-07-22T15:18:25;21.90;99.90
23156;DHT22;11746;50.876;4.246;2023-07-22T15:20:51;21.60;99.90
23156;DHT22;11746;50.876;4.246;2023-07-22T15:23:18;21.50;99.90
23156;DHT22;11746;50.876;4.246;2023-07-22T15:25:44;21.50;99.90
23156;DHT22;11746;50.876;4.246;2023-07-22T15:28:10;21.50;99.90
23156;DHT22;11746;50.876;4.246;2023-07-22T15:30:36;21.50;99.90
23156;DHT22;11746;50.876;4.246;2023-07-22T15:33:02;21.40;99.90
23156;DHT22;11746;50.876;4.246;2023-07-22T15:35:28;21.30;99.90
23156;DHT22;11746;50.876;4.246;2023-07-22T15:37:53;21.10;99.90
23156;DHT22;11746;50.876;4.246;2023-07-22T15:40:20;21.20;99.90
23156;DHT22;11746;50.876;4.246;2023-07-22T15:42:46;21.00;99.90
23156;DHT22;11746;50.876;4.246;2023-07-22T15:45:12;21.10;99.90
23156;DHT22;11746;50.876;4.246;2023-07-22T15:47:38;21.00;99.90
23156;DHT22;11746;50.876;4.246;2023-07-22T15:50:04;20.90;99.90
23156;DHT22;11746;50.876;4.246;2023-07-22T15:52:30;21.00;99.90
23156;DHT22;11746;50.876;4.246;2023-07-22T15:54:56;21.10;99.90